sensor_id;sensor_type;location;lat;lon;timestamp;pressure;altitude;pressure_sealevel;temperature;humidity
16331;BME280;8275;48.206;16.340;2023-08-07T00:00:17;98372.56;;;19.91;46.68
16331;BME280;8275;48.206;16.340;2023-08-07T00:02:46;98375.81;;;19.93;46.92
16331;BME280;8275;48.206;16.340;2023-08-07T00:05:14;98354.41;;;19.93;46.51
16331;BME280;8275;48.206;16.340;2023-08-07T00:07:44;98369.44;;;19.92;46.40
16331;BME280;8275;48.206;16.340;2023-08-07T00:10:12;98375.47;;;19.94;46.57
16331;BME280;8275;48.206;16.340;2023-08-07T00:12:41;98366.81;;;19.96;46.33
16331;BME280;8275;48.206;16.340;2023-08-07T00:15:10;98379.53;;;19.97;46.05
16331;BME280;8275;48.206;16.340;2023-08-07T00:17:40;98370.53;;;20.00;46.10
16331;BME280;8275;48.206;16.340;2023-08-07T00:20:10;98361.84;;;20.01;46.22
16331;BME280;8275;48.206;16.340;2023-08-07T00:22:38;98380.97;;;20.03;45.95
16331;BME280;8275;48.206;16.340;2023-08-07T00:25:08;98354.78;;;20.04;46.12
16331;BME280;8275;48.206;16.340;2023-08-07T00:27:36;98360.00;;;20.05;46.01
16331;BME280;8275;48.206;16.340;2023-08-07T00:30:07;98379.16;;;20.07;46.16
16331;BME280;8275;48.206;16.340;2023-08-07T00:32:35;98384.34;;;20.08;45.81
16331;BME280;8275;48.206;16.340;2023-08-07T00:35:06;98391.09;;;20.07;45.60
16331;BME280;8275;48.206;16.340;2023-08-07T00:37:36;98390.75;;;20.09;45.67
16331;BME280;8275;48.206;16.340;2023-08-07T00:40:07;98397.13;;;20.09;46.02
16331;BME280;8275;48.206;16.340;2023-08-07T00:42:36;98405.09;;;20.11;45.88
16331;BME280;8275;48.206;16.340;2023-08-07T00:45:06;98410.00;;;20.14;45.81
16331;BME280;8275;48.206;16.340;2023-08-07T00:47:35;98408.84;;;20.15;45.92
16331;BME280;8275;48.206;16.340;2023-08-07T00:50:08;98417.19;;;20.15;45.96
16331;BME280;8275;48.206;16.340;2023-08-07T00:52:37;98418.81;;;20.16;45.75
16331;BME280;8275;48.206;16.340;2023-08-07T00:55:07;98414.06;;;20.16;45.79
16331;BME280;8275;48.206;16.340;2023-08-07T00:57:35;98415.69;;;20.17;45.65
16331;BME280;8275;48.206;16.340;2023-08-07T01:00:06;98415.38;;;20.19;45.31
16331;BME280;8275;48.206;16.340;2023-08-07T01:02:35;98417.78;;;20.20;45.41
16331;BME280;8275;48.206;16.340;2023-08-07T01:05:06;98412.22;;;20.20;45.69
16331;BME280;8275;48.206;16.340;2023-08-07T01:07:35;98414.69;;;20.22;45.76
16331;BME280;8275;48.206;16.340;2023-08-07T01:10:05;98414.38;;;20.23;45.56
16331;BME280;8275;48.206;16.340;2023-08-07T01:12:42;98413.88;;;20.21;45.46
16331;BME280;8275;48.206;16.340;2023-08-07T01:15:16;98417.78;;;20.20;45.36
16331;BME280;8275;48.206;16.340;2023-08-07T01:17:50;98406.66;;;20.20;45.47
16331;BME280;8275;48.206;16.340;2023-08-07T01:20:22;98431.69;;;20.20;45.54
16331;BME280;8275;48.206;16.340;2023-08-07T01:22:52;98427.28;;;20.19;45.24
16331;BME280;8275;48.206;16.340;2023-08-07T01:25:20;98420.94;;;20.19;45.40
16331;BME280;8275;48.206;16.340;2023-08-07T01:28:02;98435.16;;;20.17;45.37
16331;BME280;8275;48.206;16.340;2023-08-07T01:30:37;98433.53;;;20.16;45.18
16331;BME280;8275;48.206;16.340;2023-08-07T01:33:12;98432.38;;;20.17;45.17
16331;BME280;8275;48.206;16.340;2023-08-07T01:35:47;98429.28;;;20.19;45.38
16331;BME280;8275;48.206;16.340;2023-08-07T01:38:18;98429.44;;;20.22;45.13
16331;BME280;8275;48.206;16.340;2023-08-07T01:40:49;98434.31;;;20.25;44.95
16331;BME280;8275;48.206;16.340;2023-08-07T01:43:19;98422.50;;;20.28;44.66
16331;BME280;8275;48.206;16.340;2023-08-07T01:45:47;98432.47;;;20.29;44.06
16331;BME280;8275;48.206;16.340;2023-08-07T01:48:16;98438.84;;;20.30;44.45
16331;BME280;8275;48.206;16.340;2023-08-07T01:50:45;98429.34;;;20.31;44.67
16331;BME280;8275;48.206;16.340;2023-08-07T01:53:14;98431.94;;;20.36;44.49
16331;BME280;8275;48.206;16.340;2023-08-07T01:55:44;98438.78;;;20.39;44.27
16331;BME280;8275;48.206;16.340;2023-08-07T01:58:12;98447.59;;;20.41;43.88
16331;BME280;8275;48.206;16.340;2023-08-07T02:00:41;98444.81;;;20.41;43.72
16331;BME280;8275;48.206;16.340;2023-08-07T02:03:09;98446.09;;;20.43;43.99
16331;BME280;8275;48.206;16.340;2023-08-07T02:05:38;98450.16;;;20.46;44.08
16331;BME280;8275;48.206;16.340;2023-08-07T02:08:06;98447.88;;;20.48;43.79
16331;BME280;8275;48.206;16.340;2023-08-07T02:10:35;98448.31;;;20.50;43.99
16331;BME280;8275;48.206;16.340;2023-08-07T02:13:05;98438.03;;;20.50;43.26
16331;BME280;8275;48.206;16.340;2023-08-07T02:15:34;98445.53;;;20.50;43.14
16331;BME280;8275;48.206;16.340;2023-08-07T02:18:03;98423.28;;;20.50;43.18
16331;BME280;8275;48.206;16.340;2023-08-07T02:20:31;98444.41;;;20.51;43.38
16331;BME280;8275;48.206;16.340;2023-08-07T02:23:00;98448.78;;;20.52;42.80
16331;BME280;8275;48.206;16.340;2023-08-07T02:25:28;98450.28;;;20.49;42.81
16331;BME280;8275;48.206;16.340;2023-08-07T02:27:57;98451.13;;;20.50;43.41
16331;BME280;8275;48.206;16.340;2023-08-07T02:30:27;98460.28;;;20.50;43.18
16331;BME280;8275;48.206;16.340;2023-08-07T02:32:55;98452.41;;;20.52;43.32
16331;BME280;8275;48.206;16.340;2023-08-07T02:35:24;98438.97;;;20.54;43.16
16331;BME280;8275;48.206;16.340;2023-08-07T02:37:52;98431.06;;;20.56;42.99
16331;BME280;8275;48.206;16.340;2023-08-07T02:40:21;98427.81;;;20.54;42.35
16331;BME280;8275;48.206;16.340;2023-08-07T02:42:49;98443.22;;;20.52;42.55
16331;BME280;8275;48.206;16.340;2023-08-07T02:45:18;98426.53;;;20.52;42.66
16331;BME280;8275;48.206;16.340;2023-08-07T02:47:49;98421.31;;;20.50;42.70
16331;BME280;8275;48.206;16.340;2023-08-07T02:50:17;98404.16;;;20.48;42.83
16331;BME280;8275;48.206;16.340;2023-08-07T02:52:46;98412.50;;;20.48;42.54
16331;BME280;8275;48.206;16.340;2023-08-07T02:55:14;98423.16;;;20.46;42.56
16331;BME280;8275;48.206;16.340;2023-08-07T02:57:43;98415.50;;;20.43;42.32
16331;BME280;8275;48.206;16.340;2023-08-07T03:00:12;98410.97;;;20.39;42.37
16331;BME280;8275;48.206;16.340;2023-08-07T03:02:41;98412.59;;;20.40;42.77
16331;BME280;8275;48.206;16.340;2023-08-07T03:05:11;98412.81;;;20.35;42.02
16331;BME280;8275;48.206;16.340;2023-08-07T03:07:40;98421.81;;;20.32;41.93
16331;BME280;8275;48.206;16.340;2023-08-07T03:10:09;98408.94;;;20.27;42.18
16331;BME280;8275;48.206;16.340;2023-08-07T03:12:37;98425.63;;;20.27;42.54
16331;BME280;8275;48.206;16.340;2023-08-07T03:15:07;98416.81;;;20.25;42.24
16331;BME280;8275;48.206;16.340;2023-08-07T03:17:35;98411.59;;;20.23;42.52
16331;BME280;8275;48.206;16.340;2023-08-07T03:20:05;98421.09;;;20.22;42.08
16331;BME280;8275;48.206;16.340;2023-08-07T03:22:36;98408.16;;;20.18;41.85
16331;BME280;8275;48.206;16.340;2023-08-07T03:25:05;98398.53;;;20.15;42.38
16331;BME280;8275;48.206;16.340;2023-08-07T03:27:34;98426.69;;;20.14;42.45
16331;BME280;8275;48.206;16.340;2023-08-07T03:30:04;98419.16;;;20.14;42.63
16331;BME280;8275;48.206;16.340;2023-08-07T03:32:33;98424.22;;;20.12;42.35
16331;BME280;8275;48.206;16.340;2023-08-07T03:35:01;98417.06;;;20.11;42.39
16331;BME280;8275;48.206;16.340;2023-08-07T03:37:30;98427.34;;;20.11;42.42
16331;BME280;8275;48.206;16.340;2023-08-07T03:39:59;98422.94;;;20.10;42.38
16331;BME280;8275;48.206;16.340;2023-08-07T03:42:28;98420.84;;;20.07;42.39
16331;BME280;8275;48.206;16.340;2023-08-07T03:44:56;98430.69;;;20.04;42.26
16331;BME280;8275;48.206;16.340;2023-08-07T03:47:25;98418.75;;;20.04;42.27
16331;BME280;8275;48.206;16.340;2023-08-07T03:49:54;98415.50;;;20.02;42.55
16331;BME280;8275;48.206;16.340;2023-08-07T03:52:23;98422.19;;;20.01;42.60
16331;BME280;8275;48.206;16.340;2023-08-07T03:54:51;98424.50;;;19.99;42.79
16331;BME280;8275;48.206;16.340;2023-08-07T03:57:21;98412.91;;;19.97;42.58
16331;BME280;8275;48.206;16.340;2023-08-07T03:59:49;98426.34;;;19.95;42.29
16331;BME280;8275;48.206;16.340;2023-08-07T04:02:18;98412.31;;;19.91;42.49
16331;BME280;8275;48.206;16.340;2023-08-07T04:04:47;98413.91;;;19.92;42.78
16331;BME280;8275;48.206;16.340;2023-08-07T04:07:15;98418.66;;;19.92;42.85
16331;BME280;8275;48.206;16.340;2023-08-07T04:09:44;98414.75;;;19.93;42.75
16331;BME280;8275;48.206;16.340;2023-08-07T04:12:12;98413.25;;;19.95;42.82
16331;BME280;8275;48.206;16.340;2023-08-07T04:14:42;98406.19;;;19.98;42.94
16331;BME280;8275;48.206;16.340;2023-08-07T04:17:11;98400.44;;;20.03;42.91
16331;BME280;8275;48.206;16.340;2023-08-07T04:19:39;98414.34;;;20.03;42.77
16331;BME280;8275;48.206;16.340;2023-08-07T04:22:08;98406.13;;;20.06;42.79
16331;BME280;8275;48.206;16.340;2023-08-07T04:24:36;98411.34;;;20.08;42.88
16331;BME280;8275;48.206;16.340;2023-08-07T04:27:05;98396.28;;;20.09;42.88
16331;BME280;8275;48.206;16.340;2023-08-07T04:29:35;98356.69;;;20.12;42.96
16331;BME280;8275;48.206;16.340;2023-08-07T04:32:06;98397.72;;;20.15;43.12
16331;BME280;8275;48.206;16.340;2023-08-07T04:34:35;98392.28;;;20.18;42.63
16331;BME280;8275;48.206;16.340;2023-08-07T04:37:04;98381.66;;;20.20;42.93
16331;BME280;8275;48.206;16.340;2023-08-07T04:39:33;98394.41;;;20.21;43.03
16331;BME280;8275;48.206;16.340;2023-08-07T04:42:04;98385.75;;;20.23;42.61
16331;BME280;8275;48.206;16.340;2023-08-07T04:44:32;98382.47;;;20.21;42.84
16331;BME280;8275;48.206;16.340;2023-08-07T04:47:01;98398.31;;;20.20;42.77
16331;BME280;8275;48.206;16.340;2023-08-07T04:49:31;98391.34;;;20.14;42.66
16331;BME280;8275;48.206;16.340;2023-08-07T04:52:00;98389.25;;;20.11;42.48
16331;BME280;8275;48.206;16.340;2023-08-07T04:54:47;98398.59;;;20.07;42.62
16331;BME280;8275;48.206;16.340;2023-08-07T04:57:15;98386.19;;;20.04;42.59
16331;BME280;8275;48.206;16.340;2023-08-07T04:59:44;98392.56;;;20.05;42.77
16331;BME280;8275;48.206;16.340;2023-08-07T05:02:12;98393.88;;;20.07;42.75
16331;BME280;8275;48.206;16.340;2023-08-07T05:04:43;98396.41;;;20.12;43.18
16331;BME280;8275;48.206;16.340;2023-08-07T05:07:11;98411.91;;;20.22;42.34
16331;BME280;8275;48.206;16.340;2023-08-07T05:09:40;98400.94;;;20.25;42.33
16331;BME280;8275;48.206;16.340;2023-08-07T05:12:09;98390.56;;;20.35;42.19
16331;BME280;8275;48.206;16.340;2023-08-07T05:14:37;98406.34;;;20.43;42.23
16331;BME280;8275;48.206;16.340;2023-08-07T05:17:06;98402.06;;;20.45;41.21
16331;BME280;8275;48.206;16.340;2023-08-07T05:19:34;98407.16;;;20.43;41.33
16331;BME280;8275;48.206;16.340;2023-08-07T05:22:05;98415.50;;;20.43;41.38
16331;BME280;8275;48.206;16.340;2023-08-07T05:24:33;98409.59;;;20.45;41.12
16331;BME280;8275;48.206;16.340;2023-08-07T05:27:08;98418.06;;;20.48;40.83
16331;BME280;8275;48.206;16.340;2023-08-07T05:29:37;98431.31;;;20.51;40.73
16331;BME280;8275;48.206;16.340;2023-08-07T05:32:11;98432.09;;;20.52;41.08
16331;BME280;8275;48.206;16.340;2023-08-07T05:34:40;98423.09;;;20.55;40.99
16331;BME280;8275;48.206;16.340;2023-08-07T05:37:10;98441.53;;;20.59;40.67
16331;BME280;8275;48.206;16.340;2023-08-07T05:39:39;98447.56;;;20.61;40.81
16331;BME280;8275;48.206;16.340;2023-08-07T05:42:08;98434.94;;;20.64;41.04
16331;BME280;8275;48.206;16.340;2023-08-07T05:44:37;98453.41;;;20.68;41.05
16331;BME280;8275;48.206;16.340;2023-08-07T05:47:07;98456.44;;;20.75;41.01
16331;BME280;8275;48.206;16.340;2023-08-07T05:49:35;98450.78;;;20.84;41.00
16331;BME280;8275;48.206;16.340;2023-08-07T05:52:05;98486.41;;;20.90;40.98
16331;BME280;8275;48.206;16.340;2023-08-07T05:54:35;98489.69;;;20.92;40.03
16331;BME280;8275;48.206;16.340;2023-08-07T05:57:05;98471.34;;;20.91;40.00
16331;BME280;8275;48.206;16.340;2023-08-07T05:59:33;98484.44;;;20.91;40.30
16331;BME280;8275;48.206;16.340;2023-08-07T06:02:03;98509.84;;;20.89;39.85
16331;BME280;8275;48.206;16.340;2023-08-07T06:04:33;98497.44;;;20.87;40.03
16331;BME280;8275;48.206;16.340;2023-08-07T06:07:01;98500.88;;;20.84;40.28
16331;BME280;8275;48.206;16.340;2023-08-07T06:09:30;98509.25;;;20.84;40.40
16331;BME280;8275;48.206;16.340;2023-08-07T06:12:00;98498.94;;;20.84;41.03
16331;BME280;8275;48.206;16.340;2023-08-07T06:14:28;98518.41;;;20.84;40.50
16331;BME280;8275;48.206;16.340;2023-08-07T06:16:57;98520.25;;;20.80;40.46
16331;BME280;8275;48.206;16.340;2023-08-07T06:19:27;98507.16;;;20.81;40.54
16331;BME280;8275;48.206;16.340;2023-08-07T06:21:59;98480.47;;;20.80;40.88
16331;BME280;8275;48.206;16.340;2023-08-07T06:24:28;98488.00;;;20.79;40.28
16331;BME280;8275;48.206;16.340;2023-08-07T06:26:57;98476.06;;;20.79;40.31
16331;BME280;8275;48.206;16.340;2023-08-07T06:29:27;98462.94;;;20.79;40.41
16331;BME280;8275;48.206;16.340;2023-08-07T06:31:55;98445.91;;;20.81;40.29
16331;BME280;8275;48.206;16.340;2023-08-07T06:34:24;98462.38;;;20.86;40.01
16331;BME280;8275;48.206;16.340;2023-08-07T06:36:52;98445.00;;;20.89;39.95
16331;BME280;8275;48.206;16.340;2023-08-07T06:39:21;98440.25;;;20.89;39.29
16331;BME280;8275;48.206;16.340;2023-08-07T06:41:49;98428.44;;;20.92;39.20
16331;BME280;8275;48.206;16.340;2023-08-07T06:44:18;98429.00;;;20.98;38.94
16331;BME280;8275;48.206;16.340;2023-08-07T06:46:48;98403.72;;;21.03;37.42
16331;BME280;8275;48.206;16.340;2023-08-07T06:49:16;98417.66;;;21.03;38.69
16331;BME280;8275;48.206;16.340;2023-08-07T06:51:45;98443.81;;;21.11;38.84
16331;BME280;8275;48.206;16.340;2023-08-07T06:54:13;98482.72;;;21.19;38.44
16331;BME280;8275;48.206;16.340;2023-08-07T06:56:42;98423.63;;;21.26;38.69
16331;BME280;8275;48.206;16.340;2023-08-07T06:59:11;98432.59;;;21.31;38.31
16331;BME280;8275;48.206;16.340;2023-08-07T07:01:40;98445.13;;;21.37;38.30
16331;BME280;8275;48.206;16.340;2023-08-07T07:04:10;98431.78;;;21.43;37.80
16331;BME280;8275;48.206;16.340;2023-08-07T07:06:38;98425.41;;;21.42;36.93
16331;BME280;8275;48.206;16.340;2023-08-07T07:09:07;98440.84;;;21.40;37.75
16331;BME280;8275;48.206;16.340;2023-08-07T07:11:35;98431.19;;;21.37;37.54
16331;BME280;8275;48.206;16.340;2023-08-07T07:14:05;98435.84;;;21.33;37.68
16331;BME280;8275;48.206;16.340;2023-08-07T07:16:33;98466.72;;;21.28;37.62
16331;BME280;8275;48.206;16.340;2023-08-07T07:19:03;98466.25;;;21.26;37.74
16331;BME280;8275;48.206;16.340;2023-08-07T07:21:33;98475.53;;;21.30;37.87
16331;BME280;8275;48.206;16.340;2023-08-07T07:24:02;98474.50;;;21.35;37.93
16331;BME280;8275;48.206;16.340;2023-08-07T07:26:31;98501.31;;;21.39;37.64
16331;BME280;8275;48.206;16.340;2023-08-07T07:28:59;98497.84;;;21.42;37.90
16331;BME280;8275;48.206;16.340;2023-08-07T07:31:28;98494.72;;;21.44;37.85
16331;BME280;8275;48.206;16.340;2023-08-07T07:33:57;98495.88;;;21.43;37.83
16331;BME280;8275;48.206;16.340;2023-08-07T07:36:26;98489.72;;;21.37;37.97
16331;BME280;8275;48.206;16.340;2023-08-07T07:38:55;98510.38;;;21.36;38.22
16331;BME280;8275;48.206;16.340;2023-08-07T07:41:24;98517.94;;;21.36;38.83
16331;BME280;8275;48.206;16.340;2023-08-07T07:43:52;98529.75;;;21.33;39.44
16331;BME280;8275;48.206;16.340;2023-08-07T07:46:23;98538.69;;;21.26;39.59
16331;BME280;8275;48.206;16.340;2023-08-07T07:48:52;98537.34;;;21.12;40.04
16331;BME280;8275;48.206;16.340;2023-08-07T07:51:21;98528.31;;;20.94;41.03
16331;BME280;8275;48.206;16.340;2023-08-07T07:53:50;98525.00;;;20.80;41.46
16331;BME280;8275;48.206;16.340;2023-08-07T07:56:40;98541.31;;;20.69;41.95
16331;BME280;8275;48.206;16.340;2023-08-07T07:59:08;98529.44;;;20.60;41.44
16331;BME280;8275;48.206;16.340;2023-08-07T08:01:37;98548.03;;;20.48;41.46
16331;BME280;8275;48.206;16.340;2023-08-07T08:04:06;98537.56;;;20.45;41.61
16331;BME280;8275;48.206;16.340;2023-08-07T08:06:37;98552.78;;;20.47;41.45
16331;BME280;8275;48.206;16.340;2023-08-07T08:09:06;98566.97;;;20.54;41.30
16331;BME280;8275;48.206;16.340;2023-08-07T08:11:37;98565.06;;;20.67;41.66
16331;BME280;8275;48.206;16.340;2023-08-07T08:14:07;98568.41;;;20.81;41.55
16331;BME280;8275;48.206;16.340;2023-08-07T08:16:35;98556.91;;;21.03;41.98
16331;BME280;8275;48.206;16.340;2023-08-07T08:19:04;98581.13;;;21.23;41.19
16331;BME280;8275;48.206;16.340;2023-08-07T08:21:34;98562.88;;;21.46;40.76
16331;BME280;8275;48.206;16.340;2023-08-07T08:24:04;98571.97;;;21.67;40.59
16331;BME280;8275;48.206;16.340;2023-08-07T08:26:33;98584.94;;;21.84;40.08
16331;BME280;8275;48.206;16.340;2023-08-07T08:29:01;98600.28;;;22.02;39.22
16331;BME280;8275;48.206;16.340;2023-08-07T08:31:33;98581.25;;;22.16;39.36
16331;BME280;8275;48.206;16.340;2023-08-07T08:34:01;98582.50;;;22.31;38.88
16331;BME280;8275;48.206;16.340;2023-08-07T08:36:30;98575.06;;;22.35;38.38
16331;BME280;8275;48.206;16.340;2023-08-07T08:38:59;98597.50;;;22.38;39.02
16331;BME280;8275;48.206;16.340;2023-08-07T08:41:29;98599.81;;;22.49;39.12
16331;BME280;8275;48.206;16.340;2023-08-07T08:44:00;98609.34;;;22.60;38.67
16331;BME280;8275;48.206;16.340;2023-08-07T08:46:29;98602.13;;;22.71;38.33
16331;BME280;8275;48.206;16.340;2023-08-07T08:49:02;98604.22;;;22.74;37.61
16331;BME280;8275;48.206;16.340;2023-08-07T08:51:32;98613.31;;;22.71;37.79
16331;BME280;8275;48.206;16.340;2023-08-07T08:54:02;98617.97;;;22.67;37.82
16331;BME280;8275;48.206;16.340;2023-08-07T08:56:31;98620.63;;;22.63;37.91
16331;BME280;8275;48.206;16.340;2023-08-07T08:59:00;98636.44;;;22.59;37.64
16331;BME280;8275;48.206;16.340;2023-08-07T09:01:29;98646.56;;;22.52;37.58
16331;BME280;8275;48.206;16.340;2023-08-07T09:04:00;98643.22;;;22.46;37.86
16331;BME280;8275;48.206;16.340;2023-08-07T09:06:32;98653.78;;;22.41;37.32
16331;BME280;8275;48.206;16.340;2023-08-07T09:09:02;98659.94;;;22.34;37.47
16331;BME280;8275;48.206;16.340;2023-08-07T09:11:31;98649.81;;;22.29;37.90
16331;BME280;8275;48.206;16.340;2023-08-07T09:14:02;98657.72;;;22.27;37.81
16331;BME280;8275;48.206;16.340;2023-08-07T09:16:31;98674.13;;;22.29;38.00
16331;BME280;8275;48.206;16.340;2023-08-07T09:19:01;98677.72;;;22.29;38.54
16331;BME280;8275;48.206;16.340;2023-08-07T09:21:32;98691.69;;;22.29;38.41
16331;BME280;8275;48.206;16.340;2023-08-07T09:24:01;98686.47;;;22.28;38.72
16331;BME280;8275;48.206;16.340;2023-08-07T09:26:32;98690.75;;;22.25;38.75
16331;BME280;8275;48.206;16.340;2023-08-07T09:29:02;98666.22;;;22.19;38.99
16331;BME280;8275;48.206;16.340;2023-08-07T09:31:31;98687.13;;;22.13;39.40
16331;BME280;8275;48.206;16.340;2023-08-07T09:34:03;98682.56;;;22.08;39.88
16331;BME280;8275;48.206;16.340;2023-08-07T09:36:33;98697.09;;;22.02;40.17
16331;BME280;8275;48.206;16.340;2023-08-07T09:39:02;98707.19;;;21.94;40.27
16331;BME280;8275;48.206;16.340;2023-08-07T09:41:31;98701.56;;;21.82;40.46
16331;BME280;8275;48.206;16.340;2023-08-07T09:44:07;98675.75;;;21.73;40.17
16331;BME280;8275;48.206;16.340;2023-08-07T09:46:41;98712.94;;;21.56;40.81
16331;BME280;8275;48.206;16.340;2023-08-07T09:49:12;98716.63;;;21.48;41.85
16331;BME280;8275;48.206;16.340;2023-08-07T09:51:44;98732.94;;;21.38;41.79
16331;BME280;8275;48.206;16.340;2023-08-07T09:54:13;98710.03;;;21.32;42.83
16331;BME280;8275;48.206;16.340;2023-08-07T09:56:41;98735.66;;;21.26;42.86
16331;BME280;8275;48.206;16.340;2023-08-07T09:59:10;98727.38;;;21.17;43.12
16331;BME280;8275;48.206;16.340;2023-08-07T10:01:39;98733.47;;;21.11;43.74
16331;BME280;8275;48.206;16.340;2023-08-07T10:04:11;98738.22;;;21.10;44.67
16331;BME280;8275;48.206;16.340;2023-08-07T10:06:44;98735.56;;;21.14;44.89
16331;BME280;8275;48.206;16.340;2023-08-07T10:09:14;98749.19;;;21.15;45.42
16331;BME280;8275;48.206;16.340;2023-08-07T10:11:42;98724.44;;;21.14;45.74
16331;BME280;8275;48.206;16.340;2023-08-07T10:14:12;98744.63;;;21.11;45.74
16331;BME280;8275;48.206;16.340;2023-08-07T10:16:42;98731.53;;;21.11;45.58
16331;BME280;8275;48.206;16.340;2023-08-07T10:19:12;98748.41;;;21.06;45.67
16331;BME280;8275;48.206;16.340;2023-08-07T10:21:41;98724.34;;;21.02;45.38
16331;BME280;8275;48.206;16.340;2023-08-07T10:24:12;98751.09;;;20.94;45.27
16331;BME280;8275;48.206;16.340;2023-08-07T10:26:44;98723.78;;;20.87;45.76
16331;BME280;8275;48.206;16.340;2023-08-07T10:29:17;98741.00;;;20.81;46.13
16331;BME280;8275;48.206;16.340;2023-08-07T10:31:48;98740.84;;;20.77;46.54
16331;BME280;8275;48.206;16.340;2023-08-07T10:34:19;98723.53;;;20.72;46.22
16331;BME280;8275;48.206;16.340;2023-08-07T10:36:47;98756.97;;;20.63;46.57
16331;BME280;8275;48.206;16.340;2023-08-07T10:39:16;98752.44;;;20.50;47.09
16331;BME280;8275;48.206;16.340;2023-08-07T10:41:46;98749.88;;;20.37;47.01
16331;BME280;8275;48.206;16.340;2023-08-07T10:44:19;98768.41;;;20.24;47.35
16331;BME280;8275;48.206;16.340;2023-08-07T10:46:49;98728.34;;;20.16;47.28
16331;BME280;8275;48.206;16.340;2023-08-07T10:49:34;98760.59;;;20.00;47.57
16331;BME280;8275;48.206;16.340;2023-08-07T10:52:14;98776.94;;;19.85;48.08
16331;BME280;8275;48.206;16.340;2023-08-07T10:54:46;98771.25;;;19.73;48.80
16331;BME280;8275;48.206;16.340;2023-08-07T10:57:18;98755.25;;;19.61;49.13
16331;BME280;8275;48.206;16.340;2023-08-07T10:59:50;98793.97;;;19.49;49.44
16331;BME280;8275;48.206;16.340;2023-08-07T11:02:28;98775.78;;;19.34;50.05
16331;BME280;8275;48.206;16.340;2023-08-07T11:04:59;98780.03;;;19.23;50.31
16331;BME280;8275;48.206;16.340;2023-08-07T11:07:29;98767.44;;;19.17;50.57
16331;BME280;8275;48.206;16.340;2023-08-07T11:09:59;98746.22;;;19.13;51.11
16331;BME280;8275;48.206;16.340;2023-08-07T11:12:28;98764.97;;;19.07;51.02
16331;BME280;8275;48.206;16.340;2023-08-07T11:14:57;98770.03;;;19.05;50.73
16331;BME280;8275;48.206;16.340;2023-08-07T11:17:26;98788.34;;;19.06;50.71
16331;BME280;8275;48.206;16.340;2023-08-07T11:19:57;98781.63;;;19.07;50.62
16331;BME280;8275;48.206;16.340;2023-08-07T11:22:26;98789.63;;;19.09;50.86
16331;BME280;8275;48.206;16.340;2023-08-07T11:24:55;98780.16;;;19.10;50.73
16331;BME280;8275;48.206;16.340;2023-08-07T11:27:23;98785.56;;;19.15;50.86
16331;BME280;8275;48.206;16.340;2023-08-07T11:29:52;98781.34;;;19.17;50.86
16331;BME280;8275;48.206;16.340;2023-08-07T11:32:21;98769.25;;;19.22;50.64
16331;BME280;8275;48.206;16.340;2023-08-07T11:34:50;98793.91;;;19.23;50.89
16331;BME280;8275;48.206;16.340;2023-08-07T11:37:20;98791.13;;;19.23;51.04
16331;BME280;8275;48.206;16.340;2023-08-07T11:39:49;98786.41;;;19.24;51.14
16331;BME280;8275;48.206;16.340;2023-08-07T11:42:17;98798.81;;;19.26;51.44
16331;BME280;8275;48.206;16.340;2023-08-07T11:44:46;98775.78;;;19.26;50.91
16331;BME280;8275;48.206;16.340;2023-08-07T11:47:15;98783.28;;;19.25;51.05
16331;BME280;8275;48.206;16.340;2023-08-07T11:49:44;98789.34;;;19.27;51.02
16331;BME280;8275;48.206;16.340;2023-08-07T11:52:13;98802.09;;;19.28;50.94
16331;BME280;8275;48.206;16.340;2023-08-07T11:54:48;98804.88;;;19.28;50.96
16331;BME280;8275;48.206;16.340;2023-08-07T11:57:18;98810.28;;;19.33;50.78
16331;BME280;8275;48.206;16.340;2023-08-07T11:59:52;98797.88;;;19.39;50.84
16331;BME280;8275;48.206;16.340;2023-08-07T12:02:24;98792.31;;;19.48;50.60
16331;BME280;8275;48.206;16.340;2023-08-07T12:04:58;98805.91;;;19.58;50.46
16331;BME280;8275;48.206;16.340;2023-08-07T12:07:28;98811.16;;;19.68;50.28
16331;BME280;8275;48.206;16.340;2023-08-07T12:10:03;98823.22;;;19.81;50.66
16331;BME280;8275;48.206;16.340;2023-08-07T12:12:34;98818.66;;;19.93;50.12
16331;BME280;8275;48.206;16.340;2023-08-07T12:15:03;98818.31;;;20.12;50.37
16331;BME280;8275;48.206;16.340;2023-08-07T12:17:33;98796.69;;;20.26;49.43
16331;BME280;8275;48.206;16.340;2023-08-07T12:20:05;98811.91;;;20.37;49.38
16331;BME280;8275;48.206;16.340;2023-08-07T12:22:37;98821.66;;;20.52;49.07
16331;BME280;8275;48.206;16.340;2023-08-07T12:25:08;98817.25;;;20.59;48.69
16331;BME280;8275;48.206;16.340;2023-08-07T12:27:36;98814.72;;;20.75;49.47
16331;BME280;8275;48.206;16.340;2023-08-07T12:30:07;98817.75;;;20.90;49.10
16331;BME280;8275;48.206;16.340;2023-08-07T12:32:35;98834.44;;;20.99;48.22
16331;BME280;8275;48.206;16.340;2023-08-07T12:35:06;98829.50;;;21.05;48.79
16331;BME280;8275;48.206;16.340;2023-08-07T12:37:38;98827.72;;;21.09;48.41
16331;BME280;8275;48.206;16.340;2023-08-07T12:40:11;98825.69;;;21.18;48.21
16331;BME280;8275;48.206;16.340;2023-08-07T12:42:43;98840.84;;;21.29;48.56
16331;BME280;8275;48.206;16.340;2023-08-07T12:45:11;98838.97;;;21.41;47.84
16331;BME280;8275;48.206;16.340;2023-08-07T12:47:42;98842.03;;;21.48;48.10
16331;BME280;8275;48.206;16.340;2023-08-07T12:50:11;98838.19;;;21.61;47.70
16331;BME280;8275;48.206;16.340;2023-08-07T12:52:41;98843.16;;;21.77;48.05
16331;BME280;8275;48.206;16.340;2023-08-07T12:55:11;98844.41;;;21.88;47.38
16331;BME280;8275;48.206;16.340;2023-08-07T12:57:41;98836.44;;;21.98;46.80
16331;BME280;8275;48.206;16.340;2023-08-07T13:00:12;98851.25;;;22.11;47.24
16331;BME280;8275;48.206;16.340;2023-08-07T13:02:42;98852.13;;;22.23;47.60
16331;BME280;8275;48.206;16.340;2023-08-07T13:05:11;98838.69;;;22.38;46.70
16331;BME280;8275;48.206;16.340;2023-08-07T13:07:41;98833.47;;;22.48;45.97
16331;BME280;8275;48.206;16.340;2023-08-07T13:10:16;98845.69;;;22.76;45.73
16331;BME280;8275;48.206;16.340;2023-08-07T13:12:47;98851.63;;;23.23;43.93